sensor_id;sensor_type;location;lat;lon;timestamp;P1;durP1;ratioP1;P2;durP2;ratioP2
64868;SDS011;51349;52.424;10.840;2023-08-08T00:03:54;1.58;;;1.30;;
64868;SDS011;51349;52.424;10.840;2023-08-08T00:08:55;2.35;;;1.40;;
64868;SDS011;51349;52.424;10.840;2023-08-08T00:13:55;2.78;;;1.70;;
64868;SDS011;51349;52.424;10.840;2023-08-08T00:18:56;1.55;;;1.38;;
64868;SDS011;51349;52.424;10.840;2023-08-08T00:23:57;1.67;;;1.08;;
64868;SDS011;51349;52.424;10.840;2023-08-08T00:28:58;2.10;;;1.42;;
64868;SDS011;51349;52.424;10.840;2023-08-08T00:33:58;1.10;;;1.05;;
64868;SDS011;51349;52.424;10.840;2023-08-08T00:38:59;1.52;;;1.30;;
64868;SDS011;51349;52.424;10.840;2023-08-08T00:43:59;2.92;;;1.50;;
64868;SDS011;51349;52.424;10.840;2023-08-08T00:49:00;2.25;;;1.35;;
64868;SDS011;51349;52.424;10.840;2023-08-08T00:54:01;1.30;;;1.20;;
64868;SDS011;51349;52.424;10.840;2023-08-08T00:59:02;1.08;;;0.98;;
64868;SDS011;51349;52.424;10.840;2023-08-08T01:04:04;1.63;;;1.48;;
64868;SDS011;51349;52.424;10.840;2023-08-08T01:09:09;2.00;;;1.55;;
64868;SDS011;51349;52.424;10.840;2023-08-08T01:14:24;2.13;;;1.67;;
64868;SDS011;51349;52.424;10.840;2023-08-08T01:19:29;2.17;;;1.98;;
64868;SDS011;51349;52.424;10.840;2023-08-08T01:24:31;1.83;;;1.55;;
64868;SDS011;51349;52.424;10.840;2023-08-08T01:29:34;1.77;;;1.67;;
64868;SDS011;51349;52.424;10.840;2023-08-08T01:34:35;1.52;;;1.40;;
64868;SDS011;51349;52.424;10.840;2023-08-08T01:39:35;2.25;;;1.48;;
64868;SDS011;51349;52.424;10.840;2023-08-08T01:44:40;1.80;;;1.52;;
64868;SDS011;51349;52.424;10.840;2023-08-08T01:49:41;2.08;;;1.88;;
64868;SDS011;51349;52.424;10.840;2023-08-08T01:54:42;1.58;;;1.48;;
64868;SDS011;51349;52.424;10.840;2023-08-08T01:59:44;3.40;;;1.73;;
64868;SDS011;51349;52.424;10.840;2023-08-08T02:04:46;1.50;;;1.40;;
64868;SDS011;51349;52.424;10.840;2023-08-08T02:09:46;2.25;;;1.50;;
64868;SDS011;51349;52.424;10.840;2023-08-08T02:14:47;6.00;;;2.38;;
64868;SDS011;51349;52.424;10.840;2023-08-08T02:19:48;1.52;;;1.25;;
64868;SDS011;51349;52.424;10.840;2023-08-08T02:24:48;1.45;;;1.35;;
64868;SDS011;51349;52.424;10.840;2023-08-08T02:29:49;1.80;;;1.30;;
64868;SDS011;51349;52.424;10.840;2023-08-08T02:34:50;2.47;;;1.80;;
64868;SDS011;51349;52.424;10.840;2023-08-08T02:39:50;1.70;;;1.60;;
64868;SDS011;51349;52.424;10.840;2023-08-08T02:44:51;1.88;;;1.45;;
64868;SDS011;51349;52.424;10.840;2023-08-08T02:49:52;2.92;;;1.73;;
64868;SDS011;51349;52.424;10.840;2023-08-08T02:54:52;1.80;;;1.70;;
64868;SDS011;51349;52.424;10.840;2023-08-08T02:59:53;2.03;;;1.83;;
64868;SDS011;51349;52.424;10.840;2023-08-08T03:04:54;2.58;;;1.92;;
64868;SDS011;51349;52.424;10.840;2023-08-08T03:09:54;2.08;;;1.77;;
64868;SDS011;51349;52.424;10.840;2023-08-08T03:14:55;1.73;;;1.63;;
64868;SDS011;51349;52.424;10.840;2023-08-08T03:19:56;2.13;;;2.03;;
64868;SDS011;51349;52.424;10.840;2023-08-08T03:24:57;2.08;;;1.98;;
64868;SDS011;51349;52.424;10.840;2023-08-08T03:30:00;2.67;;;2.20;;
64868;SDS011;51349;52.424;10.840;2023-08-08T03:35:01;2.47;;;2.10;;
64868;SDS011;51349;52.424;10.840;2023-08-08T03:40:02;2.25;;;2.00;;
64868;SDS011;51349;52.424;10.840;2023-08-08T03:45:03;2.33;;;2.13;;
64868;SDS011;51349;52.424;10.840;2023-08-08T03:50:05;2.90;;;2.70;;
64868;SDS011;51349;52.424;10.840;2023-08-08T03:55:07;1.98;;;1.88;;
64868;SDS011;51349;52.424;10.840;2023-08-08T04:00:08;2.60;;;2.40;;
64868;SDS011;51349;52.424;10.840;2023-08-08T04:05:09;2.22;;;2.10;;
64868;SDS011;51349;52.424;10.840;2023-08-08T04:10:09;4.20;;;2.08;;
64868;SDS011;51349;52.424;10.840;2023-08-08T04:15:10;2.10;;;1.85;;
64868;SDS011;51349;52.424;10.840;2023-08-08T04:20:11;2.85;;;2.17;;
64868;SDS011;51349;52.424;10.840;2023-08-08T04:25:12;2.40;;;2.20;;
64868;SDS011;51349;52.424;10.840;2023-08-08T04:30:13;4.03;;;2.10;;
64868;SDS011;51349;52.424;10.840;2023-08-08T04:35:14;2.95;;;2.58;;
64868;SDS011;51349;52.424;10.840;2023-08-08T04:40:15;2.33;;;2.13;;
64868;SDS011;51349;52.424;10.840;2023-08-08T04:45:16;3.05;;;2.22;;
64868;SDS011;51349;52.424;10.840;2023-08-08T04:50:16;2.42;;;2.22;;
64868;SDS011;51349;52.424;10.840;2023-08-08T04:55:17;2.50;;;2.00;;
64868;SDS011;51349;52.424;10.840;2023-08-08T05:00:18;2.53;;;2.33;;
64868;SDS011;51349;52.424;10.840;2023-08-08T05:05:18;2.30;;;2.10;;
64868;SDS011;51349;52.424;10.840;2023-08-08T05:10:19;2.28;;;2.08;;
64868;SDS011;51349;52.424;10.840;2023-08-08T05:15:20;2.13;;;1.95;;
64868;SDS011;51349;52.424;10.840;2023-08-08T05:20:21;3.72;;;2.00;;
64868;SDS011;51349;52.424;10.840;2023-08-08T05:25:22;2.50;;;2.30;;
64868;SDS011;51349;52.424;10.840;2023-08-08T05:30:22;2.20;;;2.00;;
64868;SDS011;51349;52.424;10.840;2023-08-08T05:35:23;1.75;;;1.65;;
64868;SDS011;51349;52.424;10.840;2023-08-08T05:40:24;2.15;;;1.98;;
64868;SDS011;51349;52.424;10.840;2023-08-08T05:45:24;2.25;;;2.05;;
64868;SDS011;51349;52.424;10.840;2023-08-08T05:50:28;2.40;;;2.13;;
64868;SDS011;51349;52.424;10.840;2023-08-08T05:55:37;2.85;;;2.03;;
64868;SDS011;51349;52.424;10.840;2023-08-08T06:00:47;2.30;;;1.70;;
64868;SDS011;51349;52.424;10.840;2023-08-08T06:05:51;3.95;;;1.88;;
64868;SDS011;51349;52.424;10.840;2023-08-08T06:10:56;2.25;;;1.70;;
64868;SDS011;51349;52.424;10.840;2023-08-08T06:15:56;1.95;;;1.85;;
64868;SDS011;51349;52.424;10.840;2023-08-08T06:20:58;3.72;;;1.90;;
64868;SDS011;51349;52.424;10.840;2023-08-08T06:25:58;2.65;;;2.08;;
64868;SDS011;51349;52.424;10.840;2023-08-08T06:30:59;2.13;;;1.90;;
64868;SDS011;51349;52.424;10.840;2023-08-08T06:36:01;2.80;;;2.15;;
64868;SDS011;51349;52.424;10.840;2023-08-08T06:41:03;2.15;;;2.00;;
64868;SDS011;51349;52.424;10.840;2023-08-08T06:46:04;3.25;;;2.30;;
64868;SDS011;51349;52.424;10.840;2023-08-08T06:51:04;4.03;;;2.55;;
64868;SDS011;51349;52.424;10.840;2023-08-08T06:56:05;3.40;;;3.13;;
64868;SDS011;51349;52.424;10.840;2023-08-08T07:01:06;2.60;;;2.40;;
64868;SDS011;51349;52.424;10.840;2023-08-08T07:06:07;2.80;;;2.53;;
64868;SDS011;51349;52.424;10.840;2023-08-08T07:11:08;3.40;;;3.10;;
64868;SDS011;51349;52.424;10.840;2023-08-08T07:16:08;3.63;;;2.78;;
64868;SDS011;51349;52.424;10.840;2023-08-08T07:21:09;3.38;;;2.70;;
64868;SDS011;51349;52.424;10.840;2023-08-08T07:26:10;3.00;;;2.75;;
64868;SDS011;51349;52.424;10.840;2023-08-08T07:31:11;2.70;;;2.47;;
64868;SDS011;51349;52.424;10.840;2023-08-08T07:36:11;3.50;;;2.60;;
64868;SDS011;51349;52.424;10.840;2023-08-08T07:41:12;3.78;;;3.00;;
64868;SDS011;51349;52.424;10.840;2023-08-08T07:46:13;3.42;;;2.58;;
64868;SDS011;51349;52.424;10.840;2023-08-08T07:51:13;2.78;;;2.58;;
64868;SDS011;51349;52.424;10.840;2023-08-08T07:56:14;2.83;;;2.40;;
64868;SDS011;51349;52.424;10.840;2023-08-08T08:01:15;2.35;;;2.25;;
64868;SDS011;51349;52.424;10.840;2023-08-08T08:06:15;3.45;;;2.35;;
64868;SDS011;51349;52.424;10.840;2023-08-08T08:11:17;3.35;;;2.67;;
64868;SDS011;51349;52.424;10.840;2023-08-08T08:16:17;2.55;;;2.30;;
64868;SDS011;51349;52.424;10.840;2023-08-08T08:21:18;2.45;;;2.33;;
64868;SDS011;51349;52.424;10.840;2023-08-08T08:26:19;3.40;;;3.08;;
64868;SDS011;51349;52.424;10.840;2023-08-08T08:31:19;2.97;;;2.50;;
64868;SDS011;51349;52.424;10.840;2023-08-08T08:36:20;2.35;;;2.15;;
64868;SDS011;51349;52.424;10.840;2023-08-08T08:41:23;3.22;;;2.92;;
64868;SDS011;51349;52.424;10.840;2023-08-08T08:46:26;2.63;;;2.42;;
64868;SDS011;51349;52.424;10.840;2023-08-08T08:51:28;2.70;;;2.50;;
64868;SDS011;51349;52.424;10.840;2023-08-08T08:56:29;2.50;;;2.30;;
64868;SDS011;51349;52.424;10.840;2023-08-08T09:01:30;2.15;;;2.05;;
64868;SDS011;51349;52.424;10.840;2023-08-08T09:06:31;2.83;;;2.20;;
64868;SDS011;51349;52.424;10.840;2023-08-08T09:11:32;3.13;;;1.90;;
64868;SDS011;51349;52.424;10.840;2023-08-08T09:16:34;5.65;;;1.90;;
64868;SDS011;51349;52.424;10.840;2023-08-08T09:21:35;2.17;;;1.77;;
64868;SDS011;51349;52.424;10.840;2023-08-08T09:26:35;2.15;;;1.83;;
64868;SDS011;51349;52.424;10.840;2023-08-08T09:31:37;2.33;;;1.83;;
64868;SDS011;51349;52.424;10.840;2023-08-08T09:36:41;1.60;;;1.50;;
64868;SDS011;51349;52.424;10.840;2023-08-08T09:41:42;1.63;;;1.50;;
64868;SDS011;51349;52.424;10.840;2023-08-08T09:46:45;1.48;;;1.38;;
64868;SDS011;51349;52.424;10.840;2023-08-08T09:51:46;3.25;;;1.30;;
64868;SDS011;51349;52.424;10.840;2023-08-08T09:56:48;1.42;;;1.30;;
64868;SDS011;51349;52.424;10.840;2023-08-08T10:01:52;2.70;;;1.42;;
64868;SDS011;51349;52.424;10.840;2023-08-08T10:06:54;1.33;;;1.17;;
64868;SDS011;51349;52.424;10.840;2023-08-08T10:11:54;2.20;;;1.30;;
64868;SDS011;51349;52.424;10.840;2023-08-08T10:16:57;2.78;;;1.60;;
64868;SDS011;51349;52.424;10.840;2023-08-08T10:21:59;1.45;;;1.35;;
64868;SDS011;51349;52.424;10.840;2023-08-08T10:27:03;1.90;;;1.80;;
64868;SDS011;51349;52.424;10.840;2023-08-08T10:32:05;1.50;;;1.50;;
64868;SDS011;51349;52.424;10.840;2023-08-08T10:37:16;1.95;;;1.70;;
64868;SDS011;51349;52.424;10.840;2023-08-08T10:42:19;2.05;;;1.95;;
64868;SDS011;51349;52.424;10.840;2023-08-08T10:47:21;2.35;;;2.03;;
64868;SDS011;51349;52.424;10.840;2023-08-08T10:52:25;2.20;;;2.00;;
64868;SDS011;51349;52.424;10.840;2023-08-08T10:57:27;2.00;;;1.77;;
64868;SDS011;51349;52.424;10.840;2023-08-08T11:02:27;1.80;;;1.70;;
64868;SDS011;51349;52.424;10.840;2023-08-08T11:07:28;1.88;;;1.77;;
64868;SDS011;51349;52.424;10.840;2023-08-08T11:12:29;2.25;;;2.03;;
64868;SDS011;51349;52.424;10.840;2023-08-08T11:17:30;2.00;;;1.90;;
64868;SDS011;51349;52.424;10.840;2023-08-08T11:22:32;1.80;;;1.70;;
64868;SDS011;51349;52.424;10.840;2023-08-08T11:27:33;1.92;;;1.65;;
64868;SDS011;51349;52.424;10.840;2023-08-08T11:32:33;1.83;;;1.73;;
64868;SDS011;51349;52.424;10.840;2023-08-08T11:37:34;1.55;;;1.45;;
64868;SDS011;51349;52.424;10.840;2023-08-08T11:42:36;1.20;;;1.20;;
64868;SDS011;51349;52.424;10.840;2023-08-08T11:47:38;1.63;;;1.13;;
64868;SDS011;51349;52.424;10.840;2023-08-08T11:52:42;1.40;;;1.30;;
64868;SDS011;51349;52.424;10.840;2023-08-08T11:57:45;1.35;;;1.30;;
64868;SDS011;51349;52.424;10.840;2023-08-08T12:02:46;1.38;;;1.27;;
64868;SDS011;51349;52.424;10.840;2023-08-08T12:07:48;1.30;;;1.30;;
64868;SDS011;51349;52.424;10.840;2023-08-08T12:12:54;1.65;;;1.55;;
64868;SDS011;51349;52.424;10.840;2023-08-08T12:17:57;1.90;;;1.80;;
64868;SDS011;51349;52.424;10.840;2023-08-08T12:22:59;2.08;;;1.58;;
64868;SDS011;51349;52.424;10.840;2023-08-08T12:28:01;2.00;;;1.90;;
64868;SDS011;51349;52.424;10.840;2023-08-08T12:33:02;2.17;;;2.03;;
64868;SDS011;51349;52.424;10.840;2023-08-08T12:38:03;2.75;;;2.17;;
64868;SDS011;51349;52.424;10.840;2023-08-08T12:43:04;2.22;;;2.00;;
64868;SDS011;51349;52.424;10.840;2023-08-08T12:48:04;1.95;;;1.85;;
64868;SDS011;51349;52.424;10.840;2023-08-08T12:53:05;1.95;;;1.50;;
64868;SDS011;51349;52.424;10.840;2023-08-08T12:58:07;1.60;;;1.50;;
64868;SDS011;51349;52.424;10.840;2023-08-08T13:03:08;2.45;;;1.70;;
64868;SDS011;51349;52.424;10.840;2023-08-08T13:08:10;1.58;;;1.20;;
64868;SDS011;51349;52.424;10.840;2023-08-08T13:13:13;1.10;;;1.10;;
64868;SDS011;51349;52.424;10.840;2023-08-08T13:18:14;1.48;;;1.10;;
64868;SDS011;51349;52.424;10.840;2023-08-08T13:23:14;2.10;;;1.30;;
64868;SDS011;51349;52.424;10.840;2023-08-08T13:28:15;2.55;;;1.60;;
64868;SDS011;51349;52.424;10.840;2023-08-08T13:33:16;1.80;;;1.30;;
64868;SDS011;51349;52.424;10.840;2023-08-08T13:38:16;2.63;;;1.55;;
64868;SDS011;51349;52.424;10.840;2023-08-08T13:43:17;1.25;;;1.15;;
64868;SDS011;51349;52.424;10.840;2023-08-08T13:48:17;1.35;;;1.30;;
64868;SDS011;51349;52.424;10.840;2023-08-08T13:53:18;1.75;;;1.30;;
64868;SDS011;51349;52.424;10.840;2023-08-08T13:58:19;2.75;;;1.25;;
64868;SDS011;51349;52.424;10.840;2023-08-08T14:03:22;1.05;;;0.95;;
64868;SDS011;51349;52.424;10.840;2023-08-08T14:08:23;0.80;;;0.80;;
64868;SDS011;51349;52.424;10.840;2023-08-08T14:13:24;0.70;;;0.70;;
64868;SDS011;51349;52.424;10.840;2023-08-08T14:18:25;0.80;;;0.80;;
64868;SDS011;51349;52.424;10.840;2023-08-08T14:23:25;1.30;;;0.90;;
64868;SDS011;51349;52.424;10.840;2023-08-08T14:28:26;0.77;;;0.77;;
64868;SDS011;51349;52.424;10.840;2023-08-08T14:33:27;0.68;;;0.65;;
64868;SDS011;51349;52.424;10.840;2023-08-08T14:38:28;2.00;;;0.70;;
64868;SDS011;51349;52.424;10.840;2023-08-08T14:43:34;0.65;;;0.65;;
64868;SDS011;51349;52.424;10.840;2023-08-08T14:48:34;0.73;;;0.73;;
64868;SDS011;51349;52.424;10.840;2023-08-08T14:53:35;0.70;;;0.70;;
64868;SDS011;51349;52.424;10.840;2023-08-08T14:58:36;0.80;;;0.80;;
64868;SDS011;51349;52.424;10.840;2023-08-08T15:03:36;0.80;;;0.80;;
64868;SDS011;51349;52.424;10.840;2023-08-08T15:08:39;0.70;;;0.70;;
64868;SDS011;51349;52.424;10.840;2023-08-08T15:13:39;0.70;;;0.65;;
64868;SDS011;51349;52.424;10.840;2023-08-08T15:18:40;0.82;;;0.80;;
64868;SDS011;51349;52.424;10.840;2023-08-08T15:23:41;1.17;;;0.75;;
64868;SDS011;51349;52.424;10.840;2023-08-08T15:28:43;1.13;;;0.75;;
64868;SDS011;51349;52.424;10.840;2023-08-08T15:33:44;0.75;;;0.75;;
64868;SDS011;51349;52.424;10.840;2023-08-08T15:38:45;1.63;;;0.90;;
64868;SDS011;51349;52.424;10.840;2023-08-08T15:43:46;0.80;;;0.80;;
64868;SDS011;51349;52.424;10.840;2023-08-08T15:48:46;1.70;;;1.10;;
64868;SDS011;51349;52.424;10.840;2023-08-08T15:53:47;0.70;;;0.68;;
64868;SDS011;51349;52.424;10.840;2023-08-08T15:58:48;1.10;;;1.00;;
64868;SDS011;51349;52.424;10.840;2023-08-08T16:03:48;0.80;;;0.80;;
64868;SDS011;51349;52.424;10.840;2023-08-08T16:08:49;0.63;;;0.63;;
64868;SDS011;51349;52.424;10.840;2023-08-08T16:13:51;0.70;;;0.70;;
64868;SDS011;51349;52.424;10.840;2023-08-08T16:18:52;1.05;;;0.70;;
64868;SDS011;51349;52.424;10.840;2023-08-08T16:23:52;1.13;;;0.80;;
64868;SDS011;51349;52.424;10.840;2023-08-08T16:28:53;1.50;;;0.80;;
64868;SDS011;51349;52.424;10.840;2023-08-08T16:33:54;1.00;;;0.90;;
64868;SDS011;51349;52.424;10.840;2023-08-08T16:38:54;0.70;;;0.70;;
64868;SDS011;51349;52.424;10.840;2023-08-08T16:44:02;1.20;;;0.73;;
64868;SDS011;51349;52.424;10.840;2023-08-08T16:49:04;0.90;;;0.90;;
64868;SDS011;51349;52.424;10.840;2023-08-08T16:54:07;7.38;;;3.83;;
64868;SDS011;51349;52.424;10.840;2023-08-08T16:59:08;2.05;;;0.80;;
64868;SDS011;51349;52.424;10.840;2023-08-08T17:04:08;0.90;;;0.90;;
64868;SDS011;51349;52.424;10.840;2023-08-08T17:09:10;1.02;;;1.02;;
64868;SDS011;51349;52.424;10.840;2023-08-08T17:14:12;2.05;;;1.20;;
64868;SDS011;51349;52.424;10.840;2023-08-08T17:19:13;0.82;;;0.77;;
64868;SDS011;51349;52.424;10.840;2023-08-08T17:24:15;1.20;;;0.90;;
64868;SDS011;51349;52.424;10.840;2023-08-08T17:29:18;0.60;;;0.60;;
64868;SDS011;51349;52.424;10.840;2023-08-08T17:34:19;0.90;;;0.90;;
64868;SDS011;51349;52.424;10.840;2023-08-08T17:39:19;0.98;;;0.80;;
64868;SDS011;51349;52.424;10.840;2023-08-08T17:44:20;0.70;;;0.70;;
64868;SDS011;51349;52.424;10.840;2023-08-08T17:49:22;0.77;;;0.77;;
64868;SDS011;51349;52.424;10.840;2023-08-08T17:54:22;1.23;;;0.88;;
64868;SDS011;51349;52.424;10.840;2023-08-08T17:59:23;1.27;;;0.93;;
64868;SDS011;51349;52.424;10.840;2023-08-08T18:04:24;0.98;;;0.88;;
64868;SDS011;51349;52.424;10.840;2023-08-08T18:09:24;0.80;;;0.80;;
64868;SDS011;51349;52.424;10.840;2023-08-08T18:14:29;0.90;;;0.90;;
64868;SDS011;51349;52.424;10.840;2023-08-08T18:19:30;2.45;;;0.80;;
64868;SDS011;51349;52.424;10.840;2023-08-08T18:24:30;0.70;;;0.70;;
64868;SDS011;51349;52.424;10.840;2023-08-08T18:29:31;2.25;;;0.90;;
64868;SDS011;51349;52.424;10.840;2023-08-08T18:34:32;1.00;;;1.00;;
64868;SDS011;51349;52.424;10.840;2023-08-08T18:39:33;0.60;;;0.60;;
64868;SDS011;51349;52.424;10.840;2023-08-08T18:44:34;0.80;;;0.80;;
64868;SDS011;51349;52.424;10.840;2023-08-08T18:49:35;0.70;;;0.70;;
64868;SDS011;51349;52.424;10.840;2023-08-08T18:54:35;0.65;;;0.65;;
64868;SDS011;51349;52.424;10.840;2023-08-08T18:59:36;0.80;;;0.80;;
64868;SDS011;51349;52.424;10.840;2023-08-08T19:04:37;0.80;;;0.80;;
64868;SDS011;51349;52.424;10.840;2023-08-08T19:09:37;0.77;;;0.70;;
64868;SDS011;51349;52.424;10.840;2023-08-08T19:14:38;1.00;;;1.00;;
64868;SDS011;51349;52.424;10.840;2023-08-08T19:19:39;1.00;;;1.00;;
64868;SDS011;51349;52.424;10.840;2023-08-08T19:24:39;0.80;;;0.80;;
64868;SDS011;51349;52.424;10.840;2023-08-08T19:29:41;0.70;;;0.70;;
64868;SDS011;51349;52.424;10.840;2023-08-08T19:34:41;1.02;;;0.90;;
64868;SDS011;51349;52.424;10.840;2023-08-08T19:39:42;0.90;;;0.90;;
64868;SDS011;51349;52.424;10.840;2023-08-08T19:44:43;0.70;;;0.70;;
64868;SDS011;51349;52.424;10.840;2023-08-08T19:49:43;2.90;;;0.90;;
64868;SDS011;51349;52.424;10.840;2023-08-08T19:54:44;0.80;;;0.80;;
64868;SDS011;51349;52.424;10.840;2023-08-08T19:59:44;0.70;;;0.70;;
64868;SDS011;51349;52.424;10.840;2023-08-08T20:04:45;0.93;;;0.85;;
64868;SDS011;51349;52.424;10.840;2023-08-08T20:09:46;3.05;;;1.08;;
64868;SDS011;51349;52.424;10.840;2023-08-08T20:14:47;1.02;;;0.95;;
64868;SDS011;51349;52.424;10.840;2023-08-08T20:19:47;1.15;;;1.00;;
64868;SDS011;51349;52.424;10.840;2023-08-08T20:24:48;0.88;;;0.88;;
64868;SDS011;51349;52.424;10.840;2023-08-08T20:29:50;0.63;;;0.63;;
64868;SDS011;51349;52.424;10.840;2023-08-08T20:34:51;1.08;;;1.00;;
64868;SDS011;51349;52.424;10.840;2023-08-08T20:39:52;1.02;;;1.02;;
64868;SDS011;51349;52.424;10.840;2023-08-08T20:44:54;1.00;;;1.00;;
64868;SDS011;51349;52.424;10.840;2023-08-08T20:49:54;1.52;;;1.00;;
64868;SDS011;51349;52.424;10.840;2023-08-08T20:54:55;1.10;;;1.00;;
64868;SDS011;51349;52.424;10.840;2023-08-08T20:59:55;1.05;;;1.00;;
64868;SDS011;51349;52.424;10.840;2023-08-08T21:04:57;1.13;;;1.10;;
64868;SDS011;51349;52.424;10.840;2023-08-08T21:09:58;0.90;;;0.90;;
64868;SDS011;51349;52.424;10.840;2023-08-08T21:14:59;1.30;;;1.20;;
64868;SDS011;51349;52.424;10.840;2023-08-08T21:19:59;1.95;;;0.90;;
64868;SDS011;51349;52.424;10.840;2023-08-08T21:25:01;1.00;;;0.90;;
64868;SDS011;51349;52.424;10.840;2023-08-08T21:30:02;1.23;;;1.13;;
64868;SDS011;51349;52.424;10.840;2023-08-08T21:35:07;1.38;;;1.13;;
64868;SDS011;51349;52.424;10.840;2023-08-08T21:40:07;2.25;;;1.10;;
64868;SDS011;51349;52.424;10.840;2023-08-08T21:45:09;1.23;;;1.13;;
64868;SDS011;51349;52.424;10.840;2023-08-08T21:50:10;1.23;;;1.20;;
64868;SDS011;51349;52.424;10.840;2023-08-08T21:55:10;2.63;;;1.05;;
64868;SDS011;51349;52.424;10.840;2023-08-08T22:00:11;1.08;;;1.08;;
64868;SDS011;51349;52.424;10.840;2023-08-08T22:05:13;3.22;;;1.23;;
64868;SDS011;51349;52.424;10.840;2023-08-08T22:10:14;1.30;;;1.20;;
64868;SDS011;51349;52.424;10.840;2023-08-08T22:15:15;1.52;;;1.42;;
64868;SDS011;51349;52.424;10.840;2023-08-08T22:20:15;2.67;;;1.33;;
64868;SDS011;51349;52.424;10.840;2023-08-08T22:25:16;4.15;;;1.27;;
64868;SDS011;51349;52.424;10.840;2023-08-08T22:30:18;0.85;;;0.85;;
64868;SDS011;51349;52.424;10.840;2023-08-08T22:35:20;2.08;;;1.38;;
64868;SDS011;51349;52.424;10.840;2023-08-08T22:40:20;1.95;;;1.08;;
64868;SDS011;51349;52.424;10.840;2023-08-08T22:45:21;0.93;;;0.93;;
64868;SDS011;51349;52.424;10.840;2023-08-08T22:50:22;2.35;;;1.27;;
64868;SDS011;51349;52.424;10.840;2023-08-08T22:55:23;1.30;;;1.20;;
64868;SDS011;51349;52.424;10.840;2023-08-08T23:00:24;0.90;;;0.90;;
64868;SDS011;51349;52.424;10.840;2023-08-08T23:05:25;1.20;;;1.20;;
64868;SDS011;51349;52.424;10.840;2023-08-08T23:10:26;1.30;;;1.20;;
64868;SDS011;51349;52.424;10.840;2023-08-08T23:15:27;1.15;;;1.15;;
64868;SDS011;51349;52.424;10.840;2023-08-08T23:20:28;1.20;;;1.10;;
64868;SDS011;51349;52.424;10.840;2023-08-08T23:25:29;1.75;;;1.13;;
64868;SDS011;51349;52.424;10.840;2023-08-08T23:30:29;1.35;;;1.25;;
64868;SDS011;51349;52.424;10.840;2023-08-08T23:35:30;1.00;;;1.00;;
64868;SDS011;51349;52.424;10.840;2023-08-08T23:40:31;2.85;;;1.30;;
64868;SDS011;51349;52.424;10.840;2023-08-08T23:45:31;1.20;;;1.10;;
64868;SDS011;51349;52.424;10.840;2023-08-08T23:50:32;1.27;;;1.25;;
64868;SDS011;51349;52.424;10.840;2023-08-08T23:55:33;1.10;;;1.10;;
